createdAt,value
2023-02-28T00:00:41.470Z,-0.34
2023-02-28T00:03:09.095Z,-0.35
2023-02-28T00:05:36.765Z,-0.38
2023-02-28T00:08:04.551Z,-0.39
2023-02-28T00:10:33.205Z,-0.40
2023-02-28T00:13:03.285Z,-0.43
2023-02-28T00:15:30.987Z,-0.43
2023-02-28T00:18:00.086Z,-0.50
2023-02-28T00:20:27.999Z,-0.50
2023-02-28T00:22:56.018Z,-0.53
2023-02-28T00:25:26.698Z,-0.54
2023-02-28T00:27:54.354Z,-0.56
2023-02-28T00:30:24.495Z,-0.60
2023-02-28T00:32:52.717Z,-0.63
2023-02-28T00:35:21.721Z,-0.63
2023-02-28T00:37:50.540Z,-0.63
2023-02-28T00:40:18.609Z,-0.63
2023-02-28T00:42:46.197Z,-0.63
2023-02-28T00:45:13.791Z,-0.65
2023-02-28T00:47:41.396Z,-0.71
2023-02-28T00:50:10.643Z,-0.70
2023-02-28T00:52:39.526Z,-0.69
2023-02-28T00:55:07.596Z,-0.71
2023-02-28T00:57:35.188Z,-0.74
2023-02-28T01:00:02.993Z,-0.72
2023-02-28T01:02:30.615Z,-0.74
2023-02-28T01:04:58.734Z,-0.75
2023-02-28T01:07:26.403Z,-0.76
2023-02-28T01:09:56.335Z,-0.69
2023-02-28T01:12:23.874Z,-0.72
2023-02-28T01:14:51.480Z,-0.74
2023-02-28T01:17:19.578Z,-0.76
2023-02-28T01:19:47.191Z,-0.77
2023-02-28T01:22:14.904Z,-0.82
2023-02-28T01:24:43.681Z,-0.79
2023-02-28T01:27:15.372Z,-0.81
2023-02-28T01:29:42.916Z,-0.88
2023-02-28T01:32:10.807Z,-0.88
2023-02-28T01:34:38.668Z,-0.91
2023-02-28T01:37:06.344Z,-0.91
2023-02-28T01:39:34.126Z,-0.89
2023-02-28T01:42:01.674Z,-0.89
2023-02-28T01:45:03.417Z,-0.87
2023-02-28T01:47:35.841Z,-0.88
2023-02-28T01:50:09.409Z,-0.91
2023-02-28T01:52:37.808Z,-0.92
2023-02-28T01:55:09.042Z,-0.93
2023-02-28T01:57:43.459Z,-0.94
2023-02-28T02:00:16.026Z,-0.96
2023-02-28T02:02:51.201Z,-0.96
2023-02-28T02:05:21.800Z,-0.98
2023-02-28T02:07:54.014Z,-0.92
2023-02-28T02:10:24.214Z,-0.99
2023-02-28T02:13:11.009Z,-1.00
2023-02-28T02:15:48.238Z,-1.06
2023-02-28T02:18:25.968Z,-1.04
2023-02-28T02:21:21.664Z,-1.08
2023-02-28T02:24:13.619Z,-1.09
2023-02-28T02:26:57.438Z,-1.08
2023-02-28T02:30:18.829Z,-1.09
2023-02-28T02:33:20.510Z,-1.13
2023-02-28T02:35:56.430Z,-1.15
2023-02-28T02:38:35.189Z,-1.17
2023-02-28T02:41:10.591Z,-1.12
2023-02-28T02:43:42.784Z,-1.15
2023-02-28T02:46:14.152Z,-1.17
2023-02-28T02:48:44.198Z,-1.23
2023-02-28T02:51:17.352Z,-1.21
2023-02-28T02:53:50.080Z,-1.25
2023-02-28T02:56:21.665Z,-1.24
2023-02-28T02:58:51.762Z,-1.27
2023-02-28T03:01:28.732Z,-1.33
2023-02-28T03:03:59.310Z,-1.30
2023-02-28T03:06:28.869Z,-1.26
2023-02-28T03:08:56.596Z,-1.24
2023-02-28T03:11:24.782Z,-1.19
2023-02-28T03:14:22.744Z,-1.17
2023-02-28T03:17:13.032Z,-1.17
2023-02-28T03:19:49.337Z,-1.13
2023-02-28T03:22:39.581Z,-1.06
2023-02-28T03:25:11.534Z,-1.02
2023-02-28T03:27:42.903Z,-0.95
2023-02-28T03:30:18.205Z,-0.89
2023-02-28T03:32:54.848Z,-0.85
2023-02-28T03:35:26.485Z,-0.76
2023-02-28T03:38:02.528Z,-0.75
2023-02-28T03:40:33.844Z,-0.72
2023-02-28T03:43:08.939Z,-0.68
2023-02-28T03:45:40.423Z,-0.59
2023-02-28T03:48:13.764Z,-0.55
2023-02-28T03:50:42.757Z,-0.50
2023-02-28T03:53:15.544Z,-0.50
2023-02-28T03:55:53.481Z,-0.47
2023-02-28T03:58:26.735Z,-0.46
2023-02-28T04:00:57.643Z,-0.37
2023-02-28T04:03:25.483Z,-0.36
2023-02-28T04:05:55.825Z,-0.36
2023-02-28T04:08:24.978Z,-0.36
2023-02-28T04:10:58.084Z,-0.34
2023-02-28T04:13:25.680Z,-0.33
2023-02-28T04:15:53.303Z,-0.29
2023-02-28T04:18:20.910Z,-0.25
2023-02-28T04:20:48.508Z,-0.30
2023-02-28T04:23:16.100Z,-0.29
2023-02-28T04:25:45.175Z,-0.29
2023-02-28T04:28:12.711Z,-0.27
2023-02-28T04:30:41.203Z,-0.25
2023-02-28T04:33:08.825Z,-0.27
2023-02-28T04:35:36.414Z,-0.26
2023-02-28T04:38:04.044Z,-0.31
2023-02-28T04:40:31.650Z,-0.37
2023-02-28T04:43:00.585Z,-0.36
2023-02-28T04:45:31.209Z,-0.38
2023-02-28T04:47:58.827Z,-0.40
2023-02-28T04:50:26.382Z,-0.45
2023-02-28T04:52:53.936Z,-0.40
2023-02-28T04:55:21.446Z,-0.45
2023-02-28T04:57:49.220Z,-0.46
2023-02-28T05:00:18.956Z,-0.49
2023-02-28T05:02:46.561Z,-0.50
2023-02-28T05:05:17.561Z,-0.51
2023-02-28T05:07:45.167Z,-0.57
2023-02-28T05:10:13.391Z,-0.57
2023-02-28T05:12:41.025Z,-0.66
2023-02-28T05:15:14.325Z,-0.64
2023-02-28T05:17:43.574Z,-0.65
2023-02-28T05:20:15.713Z,-0.72
2023-02-28T05:22:45.381Z,-0.70
2023-02-28T05:25:17.307Z,-0.67
2023-02-28T05:27:45.129Z,-0.68
2023-02-28T05:30:14.725Z,-0.75
2023-02-28T05:32:44.550Z,-0.72
2023-02-28T05:35:13.312Z,-0.75
2023-02-28T05:37:41.388Z,-0.74
2023-02-28T05:40:11.228Z,-0.72
2023-02-28T05:42:39.025Z,-0.77
2023-02-28T05:45:08.371Z,-0.79
2023-02-28T05:47:36.198Z,-0.81
2023-02-28T05:50:05.614Z,-0.72
2023-02-28T05:52:33.194Z,-0.73
2023-02-28T05:55:00.698Z,-0.66
2023-02-28T05:57:28.243Z,-0.66
2023-02-28T05:59:55.887Z,-0.66
2023-02-28T06:02:23.502Z,-0.61
2023-02-28T06:04:51.081Z,-0.61
2023-02-28T06:07:20.023Z,-0.58
2023-02-28T06:09:47.554Z,-0.53
2023-02-28T06:12:15.148Z,-0.48
2023-02-28T06:14:42.697Z,-0.41
2023-02-28T06:17:11.150Z,-0.36
2023-02-28T06:19:39.641Z,-0.38
2023-02-28T06:22:07.219Z,-0.37
2023-02-28T06:24:36.114Z,-0.31
2023-02-28T06:27:05.937Z,-0.24
2023-02-28T06:29:33.876Z,-0.21
2023-02-28T06:32:01.533Z,-0.21
2023-02-28T06:34:29.127Z,-0.23
2023-02-28T06:36:56.762Z,-0.20
2023-02-28T06:39:24.361Z,-0.22
2023-02-28T06:41:56.107Z,-0.11
2023-02-28T06:44:25.332Z,-0.08
2023-02-28T06:46:53.005Z,-0.03
2023-02-28T06:49:20.653Z,0.01
2023-02-28T06:51:48.170Z,0.02
2023-02-28T06:54:18.339Z,0.06
2023-02-28T06:56:45.881Z,0.13
2023-02-28T06:59:15.318Z,0.16
2023-02-28T07:01:42.928Z,0.15
2023-02-28T07:04:10.496Z,0.19
2023-02-28T07:06:38.142Z,0.22
2023-02-28T07:09:06.029Z,0.17
2023-02-28T07:11:33.766Z,0.22
2023-02-28T07:14:01.538Z,0.32
2023-02-28T07:16:30.627Z,0.36
2023-02-28T07:18:58.355Z,0.44
2023-02-28T07:21:26.290Z,0.53
2023-02-28T07:23:53.890Z,0.63
2023-02-28T07:26:22.920Z,0.70
2023-02-28T07:28:51.145Z,0.80
2023-02-28T07:31:19.443Z,0.86
2023-02-28T07:33:48.564Z,0.92
2023-02-28T07:36:19.436Z,0.95
2023-02-28T07:38:49.046Z,0.91
2023-02-28T07:41:17.435Z,0.97
2023-02-28T07:43:45.521Z,0.91
2023-02-28T07:46:15.942Z,0.82
2023-02-28T07:48:43.881Z,0.85
2023-02-28T07:51:13.163Z,0.85
2023-02-28T07:53:40.792Z,0.91
2023-02-28T07:56:09.092Z,0.87
2023-02-28T07:58:36.891Z,0.82
2023-02-28T08:01:08.885Z,0.86
2023-02-28T08:03:37.343Z,0.91
2023-02-28T08:06:05.727Z,0.95
2023-02-28T08:08:34.743Z,0.95
2023-02-28T08:11:03.782Z,0.99
2023-02-28T08:13:32.176Z,1.05
2023-02-28T08:16:00.000Z,1.13
2023-02-28T08:18:27.566Z,1.02
2023-02-28T08:20:55.291Z,1.08
2023-02-28T08:23:22.819Z,1.07
2023-02-28T08:25:56.552Z,0.94
2023-02-28T08:28:26.093Z,0.93
2023-02-28T08:30:54.745Z,1.07
2023-02-28T08:33:22.613Z,1.04
2023-02-28T08:35:50.350Z,1.20
2023-02-28T08:38:17.963Z,1.26
2023-02-28T08:40:45.490Z,1.25
2023-02-28T08:43:14.598Z,1.43
2023-02-28T08:45:42.408Z,1.50
2023-02-28T08:48:10.132Z,1.60
2023-02-28T08:50:37.730Z,1.66
2023-02-28T08:53:05.278Z,1.72
2023-02-28T08:55:32.858Z,1.86
2023-02-28T08:58:02.089Z,1.94
2023-02-28T09:00:30.958Z,1.97
2023-02-28T09:02:58.513Z,2.05
2023-02-28T09:05:26.144Z,2.09
2023-02-28T09:07:53.708Z,2.24
2023-02-28T09:10:21.550Z,2.31
2023-02-28T09:12:49.158Z,2.42
2023-02-28T09:15:16.799Z,2.41
2023-02-28T09:17:47.002Z,2.41
2023-02-28T09:20:15.754Z,2.37
2023-02-28T09:22:43.303Z,2.56
2023-02-28T09:25:10.929Z,2.57
2023-02-28T09:27:38.512Z,2.64
2023-02-28T09:30:07.229Z,2.88
2023-02-28T09:32:34.814Z,3.05
2023-02-28T09:35:03.745Z,3.21
2023-02-28T09:37:32.110Z,3.32
2023-02-28T09:39:59.938Z,3.40
2023-02-28T09:42:35.363Z,3.35
2023-02-28T09:45:08.666Z,3.40
2023-02-28T09:47:37.694Z,3.47
2023-02-28T09:50:19.313Z,3.66
2023-02-28T09:52:48.984Z,3.61
2023-02-28T09:55:24.293Z,3.73
2023-02-28T09:57:53.630Z,3.83
2023-02-28T10:00:25.361Z,3.99
2023-02-28T10:03:26.298Z,4.08
2023-02-28T10:06:00.947Z,3.98
2023-02-28T10:08:32.359Z,3.82
2023-02-28T10:11:05.303Z,3.88
2023-02-28T10:13:37.453Z,3.81
2023-02-28T10:16:10.287Z,3.90
2023-02-28T10:18:45.010Z,3.96
2023-02-28T10:21:22.458Z,3.79
2023-02-28T10:23:51.527Z,3.82
2023-02-28T10:26:19.932Z,3.87
2023-02-28T10:28:47.580Z,3.77
2023-02-28T10:31:19.423Z,3.79
2023-02-28T10:33:47.337Z,3.73
2023-02-28T10:36:18.878Z,3.73
2023-02-28T10:38:48.165Z,3.75
2023-02-28T10:41:18.485Z,3.76
2023-02-28T10:43:46.822Z,3.78
2023-02-28T10:46:27.136Z,3.78
2023-02-28T10:49:05.301Z,3.81
2023-02-28T10:51:40.814Z,3.95
2023-02-28T10:54:17.969Z,3.92
2023-02-28T10:56:45.712Z,4.05
2023-02-28T10:59:30.726Z,4.16
2023-02-28T11:01:58.830Z,4.15
2023-02-28T11:04:37.574Z,4.15
2023-02-28T11:07:08.474Z,4.25
2023-02-28T11:09:39.897Z,4.27
2023-02-28T11:12:10.282Z,4.39
2023-02-28T11:14:49.055Z,4.53
2023-02-28T11:17:24.987Z,4.59
2023-02-28T11:19:57.182Z,4.68
2023-02-28T11:22:30.046Z,4.64
2023-02-28T11:25:01.508Z,4.70
2023-02-28T11:27:48.083Z,4.87
2023-02-28T11:30:36.774Z,4.83
2023-02-28T11:33:23.328Z,4.93
2023-02-28T11:35:52.412Z,5.05
2023-02-28T11:38:21.497Z,5.11
2023-02-28T11:41:06.912Z,5.13
2023-02-28T11:43:47.950Z,5.23
2023-02-28T11:46:25.626Z,5.44
2023-02-28T11:49:01.209Z,5.60
2023-02-28T11:51:32.976Z,5.53
2023-02-28T11:54:17.180Z,5.66
2023-02-28T11:56:48.786Z,5.82
2023-02-28T11:59:45.192Z,6.06
2023-02-28T12:02:25.404Z,6.45
2023-02-28T12:05:10.107Z,6.46
2023-02-28T12:07:47.658Z,6.70
2023-02-28T12:10:23.381Z,6.83
2023-02-28T12:13:07.405Z,7.02
2023-02-28T12:15:51.459Z,6.73
2023-02-28T12:18:32.511Z,6.46
2023-02-28T12:21:06.594Z,6.56
2023-02-28T12:23:54.657Z,6.71
2023-02-28T12:26:33.836Z,6.79
2023-02-28T12:29:06.647Z,7.52
2023-02-28T12:31:38.424Z,8.35
2023-02-28T12:34:11.870Z,8.75
2023-02-28T12:36:40.717Z,9.32
2023-02-28T12:39:14.917Z,9.47
2023-02-28T12:41:47.803Z,9.58
2023-02-28T12:44:21.096Z,9.25
2023-02-28T12:46:52.471Z,9.21
2023-02-28T12:49:26.696Z,8.86
2023-02-28T12:51:54.968Z,8.72
2023-02-28T12:54:29.026Z,8.87
2023-02-28T12:57:05.796Z,9.09
2023-02-28T12:59:38.727Z,9.98
2023-02-28T13:03:00.587Z,10.87
2023-02-28T13:05:47.266Z,11.35
2023-02-28T13:08:40.102Z,11.82
2023-02-28T13:11:21.007Z,11.95
2023-02-28T13:13:58.638Z,11.51
2023-02-28T13:16:26.292Z,11.77
2023-02-28T13:19:11.323Z,11.50
2023-02-28T13:21:46.289Z,11.50
2023-02-28T13:24:43.456Z,11.19
2023-02-28T13:27:36.213Z,10.55
2023-02-28T13:30:42.729Z,10.87
2023-02-28T13:33:29.067Z,10.57
2023-02-28T13:36:12.985Z,10.64
2023-02-28T13:38:42.797Z,10.96
2023-02-28T13:41:48.842Z,11.58
2023-02-28T13:44:19.216Z,11.84
2023-02-28T13:47:24.678Z,12.39
2023-02-28T13:49:54.344Z,12.20
2023-02-28T13:52:25.426Z,12.15
2023-02-28T13:55:02.432Z,11.55
2023-02-28T13:57:44.415Z,11.34
2023-02-28T14:00:25.214Z,11.39
2023-02-28T14:03:14.087Z,10.49
2023-02-28T14:05:42.139Z,10.04
2023-02-28T14:08:17.855Z,9.84
2023-02-28T14:10:49.569Z,10.13
2023-02-28T14:13:46.411Z,10.07
2023-02-28T14:16:16.205Z,10.73
2023-02-28T14:18:51.822Z,11.41
2023-02-28T14:21:26.613Z,12.49
2023-02-28T14:24:18.592Z,13.19
2023-02-28T14:27:15.721Z,13.35
2023-02-28T14:30:17.229Z,13.29
2023-02-28T14:32:53.099Z,12.88
2023-02-28T14:35:47.931Z,13.00
2023-02-28T14:38:22.153Z,13.90
2023-02-28T14:40:53.213Z,14.54
2023-02-28T14:43:23.758Z,14.72
2023-02-28T14:45:56.034Z,15.70
2023-02-28T14:48:26.141Z,15.95
2023-02-28T14:50:55.830Z,15.82
2023-02-28T14:53:27.054Z,15.19
2023-02-28T14:55:58.251Z,14.05
2023-02-28T14:58:29.361Z,13.68
2023-02-28T15:01:00.794Z,14.29
2023-02-28T15:03:34.063Z,14.56
2023-02-28T15:06:03.044Z,14.80
2023-02-28T15:08:35.938Z,15.25
2023-02-28T15:11:06.858Z,14.55
2023-02-28T15:13:39.630Z,14.68
2023-02-28T15:16:13.757Z,13.99
2023-02-28T15:18:48.986Z,13.08
2023-02-28T15:21:19.267Z,13.16
2023-02-28T15:23:51.241Z,13.14
2023-02-28T15:26:22.747Z,12.99
2023-02-28T15:28:53.195Z,12.71
2023-02-28T15:31:27.748Z,12.72
2023-02-28T15:33:56.791Z,12.27
2023-02-28T15:36:28.750Z,12.46
2023-02-28T15:39:01.591Z,12.60
2023-02-28T15:41:39.886Z,12.27
2023-02-28T15:44:26.778Z,11.61
2023-02-28T15:47:03.590Z,11.60
2023-02-28T15:49:45.061Z,11.58
2023-02-28T15:52:17.640Z,11.19
2023-02-28T15:54:46.673Z,11.08
2023-02-28T15:57:19.264Z,11.16
2023-02-28T15:59:53.018Z,11.19
2023-02-28T16:02:24.218Z,11.18
2023-02-28T16:05:05.089Z,11.08
2023-02-28T16:07:33.209Z,10.92
2023-02-28T16:10:01.569Z,10.76
2023-02-28T16:12:31.878Z,10.83
2023-02-28T16:15:03.736Z,10.75
2023-02-28T16:17:36.660Z,10.63
2023-02-28T16:20:13.923Z,10.52
2023-02-28T16:22:42.879Z,10.63
2023-02-28T16:25:13.911Z,10.41
2023-02-28T16:27:42.247Z,9.63
2023-02-28T16:30:19.917Z,9.29
2023-02-28T16:32:50.025Z,9.10
2023-02-28T16:35:18.928Z,8.65
2023-02-28T16:37:47.263Z,8.18
2023-02-28T16:40:16.887Z,8.00
2023-02-28T16:42:47.257Z,8.05
2023-02-28T16:45:21.105Z,7.76
2023-02-28T16:47:50.785Z,7.64
2023-02-28T16:50:20.723Z,7.44
2023-02-28T16:52:48.783Z,7.10
2023-02-28T16:55:16.882Z,7.00
2023-02-28T16:57:46.011Z,6.75
2023-02-28T17:00:15.884Z,6.50
2023-02-28T17:02:43.671Z,6.36
2023-02-28T17:05:15.040Z,6.12
2023-02-28T17:07:44.831Z,5.88
2023-02-28T17:10:18.320Z,5.63
2023-02-28T17:12:46.357Z,5.42
2023-02-28T17:15:15.903Z,5.28
2023-02-28T17:17:44.829Z,5.17
2023-02-28T17:20:16.322Z,4.97
2023-02-28T17:22:44.111Z,4.80
2023-02-28T17:25:12.870Z,4.68
2023-02-28T17:27:40.555Z,4.61
2023-02-28T17:30:16.948Z,4.50
2023-02-28T17:32:44.743Z,4.43
2023-02-28T17:35:12.680Z,4.34
2023-02-28T17:37:42.100Z,4.25
2023-02-28T17:40:15.988Z,4.18
2023-02-28T17:42:43.658Z,4.13
2023-02-28T17:45:12.301Z,4.08
2023-02-28T17:47:40.853Z,3.98
2023-02-28T17:50:13.457Z,3.92
2023-02-28T17:52:42.334Z,3.81
2023-02-28T17:55:11.516Z,3.76
2023-02-28T17:57:39.349Z,3.67
2023-02-28T18:00:08.549Z,3.60
2023-02-28T18:02:39.939Z,3.51
2023-02-28T18:05:08.987Z,3.51
2023-02-28T18:07:38.291Z,3.51
2023-02-28T18:10:08.878Z,3.50
2023-02-28T18:12:36.430Z,3.44
2023-02-28T18:15:04.280Z,3.32
2023-02-28T18:17:31.809Z,3.27
2023-02-28T18:20:00.181Z,3.26
2023-02-28T18:22:27.757Z,3.22
2023-02-28T18:24:55.329Z,3.19
2023-02-28T18:27:24.262Z,3.13
2023-02-28T18:29:52.402Z,3.05
2023-02-28T18:32:20.037Z,3.01
2023-02-28T18:34:47.671Z,2.93
2023-02-28T18:37:16.045Z,2.90
2023-02-28T18:39:43.606Z,2.86
2023-02-28T18:42:11.195Z,2.77
2023-02-28T18:44:40.780Z,2.74
2023-02-28T18:47:08.506Z,2.70
2023-02-28T18:49:37.871Z,2.68
2023-02-28T18:52:05.705Z,2.64
2023-02-28T18:54:33.300Z,2.60
2023-02-28T18:57:00.885Z,2.55
2023-02-28T18:59:28.559Z,2.51
2023-02-28T19:01:58.392Z,2.47
2023-02-28T19:04:25.975Z,2.40
2023-02-28T19:06:53.508Z,2.32
2023-02-28T19:09:21.381Z,2.29
2023-02-28T19:11:49.437Z,2.25
2023-02-28T19:14:18.180Z,2.27
2023-02-28T19:16:47.150Z,2.25
2023-02-28T19:19:16.207Z,2.23
2023-02-28T19:21:43.933Z,2.23
2023-02-28T19:24:12.274Z,2.20
2023-02-28T19:30:54.813Z,2.06
2023-02-28T19:33:22.426Z,2.02
2023-02-28T19:35:51.412Z,1.93
2023-02-28T19:38:19.195Z,1.86
2023-02-28T19:40:46.914Z,1.79
2023-02-28T19:43:14.488Z,1.73
2023-02-28T19:45:42.194Z,1.66
2023-02-28T19:48:09.842Z,1.58
2023-02-28T19:50:38.466Z,1.51
2023-02-28T19:53:07.412Z,1.43
2023-02-28T19:55:35.012Z,1.32
2023-02-28T19:58:02.653Z,1.29
2023-02-28T20:00:30.202Z,1.18
2023-02-28T20:02:57.729Z,1.11
2023-02-28T20:05:25.281Z,1.05
2023-02-28T20:07:52.884Z,1.01
2023-02-28T20:10:21.830Z,0.97
2023-02-28T20:12:49.465Z,0.92
2023-02-28T20:15:17.316Z,0.87
2023-02-28T20:17:46.587Z,0.81
2023-02-28T20:20:14.253Z,0.76
2023-02-28T20:22:41.777Z,0.67
2023-02-28T20:25:11.408Z,0.63
2023-02-28T20:27:40.343Z,0.56
2023-02-28T20:30:09.564Z,0.57
2023-02-28T20:32:38.879Z,0.66
2023-02-28T20:35:08.568Z,0.62
2023-02-28T20:37:36.559Z,0.60
2023-02-28T20:40:04.927Z,0.57
2023-02-28T20:42:32.742Z,0.54
2023-02-28T20:45:01.676Z,0.47
2023-02-28T20:47:29.340Z,0.44
2023-02-28T20:49:56.976Z,0.37
2023-02-28T20:52:24.580Z,0.30
2023-02-28T20:54:52.860Z,0.29
2023-02-28T20:57:20.656Z,0.23
2023-02-28T20:59:48.226Z,0.16
2023-02-28T21:02:21.222Z,0.13
2023-02-28T21:04:48.832Z,0.13
2023-02-28T21:07:16.388Z,0.14
2023-02-28T21:09:43.986Z,0.15
2023-02-28T21:12:11.631Z,0.15
2023-02-28T21:14:39.245Z,0.12
2023-02-28T21:17:10.409Z,0.06
2023-02-28T21:19:39.334Z,0.02
2023-02-28T21:22:06.999Z,-0.06
2023-02-28T21:24:34.583Z,-0.10
2023-02-28T21:27:02.153Z,-0.01
2023-02-28T21:29:29.761Z,-0.06
2023-02-28T21:31:57.498Z,-0.14
2023-02-28T21:34:26.920Z,-0.18
2023-02-28T21:36:55.870Z,-0.23
2023-02-28T21:39:28.758Z,-0.28
2023-02-28T21:42:03.399Z,-0.32
2023-02-28T21:44:32.353Z,-0.37
2023-02-28T21:47:02.720Z,-0.41
2023-02-28T21:49:30.660Z,-0.43
2023-02-28T21:51:59.898Z,-0.45
2023-02-28T21:54:27.757Z,-0.51
2023-02-28T21:56:56.378Z,-0.49
2023-02-28T21:59:24.009Z,-0.38
2023-02-28T22:01:51.930Z,-0.39
2023-02-28T22:04:21.952Z,-0.46
2023-02-28T22:06:52.454Z,-0.50
2023-02-28T22:09:21.894Z,-0.58
2023-02-28T22:11:49.578Z,-0.62
2023-02-28T22:14:17.187Z,-0.66
2023-02-28T22:16:54.294Z,-0.71
2023-02-28T22:19:24.080Z,-0.75
2023-02-28T22:21:53.655Z,-0.77
2023-02-28T22:24:24.236Z,-0.80
2023-02-28T22:26:52.824Z,-0.83
2023-02-28T22:29:21.036Z,-0.86
2023-02-28T22:31:48.817Z,-0.86
2023-02-28T22:34:16.437Z,-0.84
2023-02-28T22:36:44.927Z,-0.88
2023-02-28T22:39:13.295Z,-0.89
2023-02-28T22:41:42.208Z,-0.93
2023-02-28T22:44:09.791Z,-0.96
2023-02-28T22:46:37.842Z,-1.00
2023-02-28T22:49:06.883Z,-1.06
2023-02-28T22:51:35.492Z,-1.08
2023-02-28T22:54:04.235Z,-1.09
2023-02-28T22:56:32.170Z,-1.14
2023-02-28T22:59:02.099Z,-1.16
2023-02-28T23:01:32.801Z,-1.18
2023-02-28T23:04:02.052Z,-1.19
2023-02-28T23:06:31.581Z,-1.19
2023-02-28T23:09:02.032Z,-1.18
2023-02-28T23:11:31.972Z,-1.15
2023-02-28T23:14:01.216Z,-1.16
2023-02-28T23:16:31.013Z,-1.17
2023-02-28T23:19:00.126Z,-1.17
2023-02-28T23:21:28.188Z,-1.21
2023-02-28T23:23:56.259Z,-1.23
2023-02-28T23:26:23.856Z,-1.24
2023-02-28T23:28:51.616Z,-1.27
2023-02-28T23:31:21.145Z,-1.26
2023-02-28T23:33:49.389Z,-1.25
2023-02-28T23:36:17.318Z,-1.28
2023-02-28T23:38:48.268Z,-1.29
2023-02-28T23:41:16.558Z,-1.35
2023-02-28T23:43:44.397Z,-1.36
2023-02-28T23:46:13.420Z,-1.39
2023-02-28T23:48:42.700Z,-1.40
2023-02-28T23:51:11.776Z,-1.43
2023-02-28T23:53:41.662Z,-1.44
2023-02-28T23:56:11.603Z,-1.48
2023-02-28T23:58:39.360Z,-1.52
